NVO weather

Pista Nuevo Leon Baja II
Mexicali, Baja California, Mexico

Public forecast

Using degrees Celsius for public forecast. Weather courtesy of forecast.io.

Closest aviation weather report (METAR) to Pista Nuevo Leon Baja II

Closest report is General Rodolfo Sánchez Taboada International Airport, 13.4 nm (24.8 km) NNW. Retrieved 2020/02/21 22:45 UTC (1 hour ago):

MMML 212245Z 09005KT 10SM SCT140 OVC200 27/M05 A2996 RMK 8/017 BINOVC

Closest aviation forecast (TAF) to Pista Nuevo Leon Baja II

Closest forecast is General Rodolfo Sánchez Taboada International Airport, 13.4 nm (24.8 km) NNW. Retrieved 2020/02/21 18:36 UTC (5 hours ago):

TAF MMML 211630Z 2118/2218 36005KT P6SM BKN220 BECMG 2120/2121 02012KT FM220200 18005KT P6SM SCT100 BKN220 FM220800 17010KT P6SM BKN080 BKN220 FM221400 15015KT P6SM SCT080 BKN220